Time;durP1;ratioP1;P1;durP2;ratioP2;P2;SDS_P1;SDS_P2;PMS_P1;PMS_P2;Temp;Humidity;BMP_temperature;BMP_pressure;BME280_temperature;BME280_humidity;BME280_pressure;Samples;Min_cycle;Max_cycle;Signal;HPM_P1;HPM_P2
2021/01/16 00:01:53;;;;;;;17.60;10.00;;;3.20;99.90;;;;;;5031653;28;20484;-69
2021/01/16 00:04:19;;;;;;;17.02;10.45;;;3.20;99.90;;;;;;5032557;28;20057;-70
2021/01/16 00:06:44;;;;;;;17.15;10.80;;;3.10;99.90;;;;;;5046874;28;20061;-69
2021/01/16 00:09:10;;;;;;;17.88;10.80;;;3.10;99.90;;;;;;5047541;28;20033;-69
2021/01/16 00:11:36;;;;;;;17.70;10.75;;;3.10;99.90;;;;;;5031529;28;20116;-69
2021/01/16 00:14:01;;;;;;;18.98;11.35;;;3.30;99.90;;;;;;5022227;28;20026;-69
2021/01/16 00:16:27;;;;;;;19.98;10.32;;;3.20;99.90;;;;;;5012321;28;20030;-68
2021/01/16 00:18:53;;;;;;;16.98;10.05;;;3.20;99.90;;;;;;5011223;28;20100;-69
2021/01/16 00:21:18;;;;;;;27.30;11.55;;;3.10;99.90;;;;;;5026289;28;20547;-69
2021/01/16 00:23:44;;;;;;;18.55;12.05;;;3.10;99.90;;;;;;5029652;28;20077;-69
2021/01/16 00:26:12;;;;;;;17.77;11.60;;;3.10;99.90;;;;;;5031130;28;20064;-69
2021/01/16 00:28:38;;;;;;;19.75;10.65;;;3.20;99.90;;;;;;5031483;28;20030;-67
2021/01/16 00:31:04;;;;;;;21.33;12.20;;;3.00;99.90;;;;;;5029783;28;20483;-71
2021/01/16 00:33:32;;;;;;;21.75;11.57;;;3.00;99.90;;;;;;5030256;28;20030;-69
2021/01/16 00:35:59;;;;;;;20.48;11.80;;;3.10;99.90;;;;;;5030902;28;20120;-69
2021/01/16 00:38:27;;;;;;;20.75;11.43;;;2.90;99.90;;;;;;5030170;28;20040;-69
2021/01/16 00:40:54;;;;;;;23.67;12.82;;;3.00;99.90;;;;;;5030401;28;20030;-68
2021/01/16 00:43:19;;;;;;;16.83;10.70;;;3.00;99.90;;;;;;5030321;28;20178;-69
2021/01/16 00:45:46;;;;;;;19.00;11.55;;;3.00;99.90;;;;;;5044994;28;20526;-68
2021/01/16 00:48:17;;;;;;;18.73;11.48;;;3.10;99.90;;;;;;5030960;28;20036;-68
2021/01/16 00:50:44;;;;;;;21.45;11.40;;;2.90;99.90;;;;;;5045592;28;20037;-68
2021/01/16 00:53:10;;;;;;;24.45;11.35;;;2.90;99.90;;;;;;5046117;28;20136;-69
2021/01/16 00:55:35;;;;;;;18.40;11.52;;;3.00;99.90;;;;;;5031105;28;20076;-68
2021/01/16 00:58:09;;;;;;;19.05;11.20;;;3.00;99.90;;;;;;5030576;28;20136;-68
2021/01/16 01:00:35;;;;;;;16.98;10.60;;;2.90;99.90;;;;;;5031305;28;20250;-69
2021/01/16 01:03:00;;;;;;;15.98;10.18;;;2.80;99.90;;;;;;5029939;28;20029;-69
2021/01/16 01:05:26;;;;;;;20.02;12.25;;;2.90;99.90;;;;;;5031169;28;20037;-68
2021/01/16 01:07:53;;;;;;;18.38;10.98;;;2.90;99.90;;;;;;5028424;28;20080;-67
2021/01/16 01:10:26;;;;;;;17.45;10.45;;;2.90;99.90;;;;;;5030786;28;20463;-68
2021/01/16 01:12:52;;;;;;;18.52;11.40;;;3.00;99.90;;;;;;5030127;28;20029;-68
2021/01/16 01:15:18;;;;;;;22.55;12.10;;;3.00;99.90;;;;;;5010211;28;20125;-70
2021/01/16 01:17:49;;;;;;;19.67;11.38;;;2.90;99.90;;;;;;5025828;28;20454;-69
2021/01/16 01:20:15;;;;;;;16.55;11.15;;;2.80;99.90;;;;;;5026587;28;20129;-68
2021/01/16 01:22:40;;;;;;;18.80;11.43;;;2.80;99.90;;;;;;5010297;28;20091;-68
2021/01/16 01:25:07;;;;;;;18.73;11.50;;;2.90;99.90;;;;;;5009712;28;20030;-68
2021/01/16 01:27:34;;;;;;;16.48;11.10;;;2.80;99.90;;;;;;5008769;28;20053;-69
2021/01/16 01:30:00;;;;;;;15.98;11.07;;;2.80;99.90;;;;;;5008693;28;20621;-69
2021/01/16 01:32:26;;;;;;;17.27;11.02;;;2.90;99.90;;;;;;5011114;28;20073;-69
2021/01/16 01:34:51;;;;;;;16.20;10.65;;;2.90;99.90;;;;;;5010174;28;20054;-70
2021/01/16 01:37:17;;;;;;;18.60;11.10;;;2.80;99.90;;;;;;5010999;28;20041;-69
2021/01/16 01:39:42;;;;;;;16.20;10.00;;;2.80;99.90;;;;;;5011018;28;20022;-67
2021/01/16 01:42:17;;;;;;;18.17;10.82;;;2.90;99.90;;;;;;5010796;28;20077;-69
2021/01/16 01:44:44;;;;;;;17.25;10.73;;;2.90;99.90;;;;;;5023160;28;20073;-68
2021/01/16 01:47:14;;;;;;;17.33;11.10;;;2.80;99.90;;;;;;5031203;28;20103;-69
2021/01/16 01:49:42;;;;;;;17.08;10.50;;;2.90;99.90;;;;;;5030905;28;20121;-69
2021/01/16 01:52:10;;;;;;;17.65;10.63;;;2.90;99.90;;;;;;5030116;28;20116;-70
2021/01/16 01:54:36;;;;;;;18.70;10.30;;;2.80;99.90;;;;;;5030708;28;20041;-69
2021/01/16 01:57:03;;;;;;;17.20;11.70;;;2.80;99.90;;;;;;5029672;28;20036;-68
2021/01/16 01:59:35;;;;;;;16.17;10.57;;;3.00;99.90;;;;;;5044658;28;20064;-69
2021/01/16 02:02:02;;;;;;;18.23;11.02;;;2.90;99.90;;;;;;5045094;28;20038;-68
2021/01/16 02:04:30;;;;;;;19.75;10.57;;;2.90;99.90;;;;;;5030511;28;20096;-69
2021/01/16 02:07:20;;;;;;;17.52;12.35;;;2.80;99.90;;;;;;5045061;28;20554;-68
2021/01/16 02:09:47;;;;;;;17.65;11.73;;;2.70;99.90;;;;;;5029779;28;20104;-68
2021/01/16 02:12:12;;;;;;;17.10;10.23;;;2.80;99.90;;;;;;5030470;28;20026;-68
2021/01/16 02:14:40;;;;;;;15.75;9.45;;;2.70;99.90;;;;;;5016558;28;20033;-69
2021/01/16 02:17:09;;;;;;;15.30;9.88;;;2.80;99.90;;;;;;5008676;28;20030;-68
2021/01/16 02:20:15;;;;;;;17.45;10.15;;;2.70;99.90;;;;;;5010581;28;20026;-68
2021/01/16 02:22:59;;;;;;;13.88;9.30;;;2.80;99.90;;;;;;4997702;28;20053;-68
2021/01/16 02:25:52;;;;;;;13.88;8.15;;;2.60;99.90;;;;;;5010954;28;20033;-69
2021/01/16 02:28:22;;;;;;;12.50;8.25;;;2.40;99.90;;;;;;5010735;28;20470;-68
2021/01/16 02:30:49;;;;;;;14.25;9.40;;;2.50;99.90;;;;;;5009911;28;20029;-68
2021/01/16 02:33:19;;;;;;;16.05;9.50;;;2.40;99.90;;;;;;5010423;28;20100;-69
2021/01/16 02:36:18;;;;;;;18.25;9.73;;;2.50;99.90;;;;;;5008483;28;20054;-68
2021/01/16 02:39:03;;;;;;;13.13;7.63;;;2.50;99.90;;;;;;5010452;28;20033;-68
2021/01/16 02:42:10;;;;;;;15.43;7.78;;;2.40;99.90;;;;;;5008719;28;20134;-69
2021/01/16 02:44:38;;;;;;;13.93;8.15;;;2.30;99.90;;;;;;5001375;28;20046;-68
2021/01/16 02:47:47;;;;;;;14.90;7.38;;;2.20;99.90;;;;;;5004540;28;20045;-69
2021/01/16 02:50:25;;;;;;;13.38;8.23;;;2.20;99.90;;;;;;5013401;28;20068;-69
2021/01/16 02:52:56;;;;;;;13.68;7.55;;;2.10;99.90;;;;;;5013048;28;20037;-68
2021/01/16 02:55:22;;;;;;;13.23;6.53;;;2.20;99.90;;;;;;5012107;28;20476;-70
2021/01/16 02:57:47;;;;;;;13.95;7.78;;;2.20;99.90;;;;;;5013605;28;20033;-67
2021/01/16 03:00:20;;;;;;;10.75;7.55;;;2.30;99.90;;;;;;5011958;28;20026;-69
2021/01/16 03:02:45;;;;;;;14.38;8.15;;;2.20;99.90;;;;;;5010823;28;20037;-69
2021/01/16 03:05:11;;;;;;;13.35;7.88;;;2.20;99.90;;;;;;5013187;28;20444;-69
2021/01/16 03:07:38;;;;;;;11.93;7.03;;;2.20;99.90;;;;;;5011737;28;20034;-69
2021/01/16 03:10:09;;;;;;;13.27;7.80;;;2.20;99.60;;;;;;5010966;28;20025;-68
2021/01/16 03:12:36;;;;;;;11.90;7.25;;;2.20;99.50;;;;;;5013355;28;20076;-68
2021/01/16 03:15:10;;;;;;;10.15;6.38;;;2.20;99.60;;;;;;5012554;28;20034;-68
2021/01/16 03:17:44;;;;;;;16.20;7.22;;;2.20;99.70;;;;;;5013787;28;20096;-69
2021/01/16 03:20:12;;;;;;;10.00;6.43;;;2.20;99.30;;;;;;5011294;28;20534;-67
2021/01/16 03:22:38;;;;;;;12.27;6.35;;;2.20;99.10;;;;;;5012895;28;20040;-68
2021/01/16 03:25:04;;;;;;;10.52;6.57;;;2.20;99.00;;;;;;5011114;28;20116;-69
2021/01/16 03:27:30;;;;;;;8.95;5.95;;;2.10;98.70;;;;;;5012470;28;20099;-68
2021/01/16 03:29:55;;;;;;;10.95;6.32;;;2.10;98.60;;;;;;5012553;28;20137;-68
2021/01/16 03:32:21;;;;;;;10.77;6.85;;;2.00;98.50;;;;;;5011705;28;20116;-68
2021/01/16 03:34:48;;;;;;;9.55;6.00;;;2.00;98.90;;;;;;5010805;28;20078;-67
2021/01/16 03:37:15;;;;;;;12.55;7.18;;;1.90;98.60;;;;;;5012627;28;20037;-68
2021/01/16 03:39:41;;;;;;;9.98;5.70;;;1.90;98.60;;;;;;5011654;28;20044;-68
2021/01/16 03:42:08;;;;;;;10.98;6.18;;;1.80;98.80;;;;;;5010675;28;20511;-70
2021/01/16 03:44:34;;;;;;;9.82;5.95;;;1.70;99.10;;;;;;5024442;28;20025;-68
2021/01/16 03:47:00;;;;;;;8.77;5.72;;;1.70;99.30;;;;;;5046782;28;20117;-67
2021/01/16 03:49:25;;;;;;;9.45;5.65;;;1.80;99.50;;;;;;5032782;28;20100;-68
2021/01/16 03:51:51;;;;;;;11.45;6.85;;;1.70;99.60;;;;;;5031595;28;20041;-68
2021/01/16 03:54:17;;;;;;;11.60;6.50;;;1.70;99.50;;;;;;5032346;28;20053;-69
2021/01/16 03:56:43;;;;;;;14.50;6.60;;;1.70;99.60;;;;;;5032359;28;20463;-68
2021/01/16 03:59:09;;;;;;;16.60;6.88;;;1.80;99.50;;;;;;5047133;28;20049;-69
2021/01/16 04:01:35;;;;;;;17.30;6.43;;;1.90;99.20;;;;;;5047634;28;20029;-69
2021/01/16 04:04:01;;;;;;;10.23;6.10;;;1.90;98.90;;;;;;5031660;28;20100;-69
2021/01/16 04:06:27;;;;;;;10.73;6.25;;;1.90;99.10;;;;;;5032111;28;20029;-68
2021/01/16 04:08:53;;;;;;;10.15;6.32;;;1.90;99.20;;;;;;5047277;28;20108;-68
2021/01/16 04:11:19;;;;;;;9.38;6.10;;;1.90;99.40;;;;;;5032948;28;20045;-69
2021/01/16 04:13:45;;;;;;;9.93;6.80;;;1.90;99.30;;;;;;5047511;28;20025;-69
2021/01/16 04:16:11;;;;;;;10.13;6.57;;;1.80;99.40;;;;;;5029469;28;20109;-70
2021/01/16 04:18:36;;;;;;;9.70;5.60;;;1.70;99.80;;;;;;5032526;28;20029;-68
2021/01/16 04:21:03;;;;;;;9.52;6.25;;;1.80;99.90;;;;;;5030760;28;20033;-68
2021/01/16 04:23:28;;;;;;;11.75;6.90;;;1.80;99.50;;;;;;5046889;28;20030;-68
2021/01/16 04:25:54;;;;;;;12.88;7.10;;;1.70;99.70;;;;;;5030992;28;20032;-68
2021/01/16 04:28:20;;;;;;;14.98;7.05;;;1.80;99.90;;;;;;5047387;28;20113;-69
2021/01/16 04:30:46;;;;;;;11.13;7.25;;;1.80;99.80;;;;;;5030947;28;20026;-68
2021/01/16 04:33:12;;;;;;;10.88;6.68;;;1.90;99.70;;;;;;5029500;28;20083;-68
2021/01/16 04:35:38;;;;;;;13.43;7.13;;;1.70;99.90;;;;;;5046842;28;20057;-68
2021/01/16 04:38:04;;;;;;;9.88;6.80;;;1.90;99.70;;;;;;5045533;28;20029;-68
2021/01/16 04:40:30;;;;;;;10.43;6.53;;;1.90;99.70;;;;;;5030316;28;20021;-68
2021/01/16 04:42:58;;;;;;;12.63;6.50;;;1.80;99.50;;;;;;5030521;28;20041;-68
2021/01/16 04:45:24;;;;;;;11.48;6.95;;;1.70;99.90;;;;;;5031044;28;20045;-67
2021/01/16 04:47:50;;;;;;;10.95;6.50;;;1.70;99.90;;;;;;5031943;28;20033;-68
2021/01/16 04:50:18;;;;;;;16.33;7.30;;;1.70;99.90;;;;;;5046049;28;20087;-68
2021/01/16 04:52:45;;;;;;;13.18;7.35;;;1.80;99.90;;;;;;5031285;28;20107;-68
2021/01/16 04:55:13;;;;;;;11.25;6.32;;;1.80;99.90;;;;;;5045777;28;20029;-67
2021/01/16 04:57:40;;;;;;;11.55;6.30;;;1.80;99.70;;;;;;5046616;28;20502;-69
2021/01/16 05:00:13;;;;;;;12.80;6.97;;;1.80;99.70;;;;;;5028779;28;20025;-68
2021/01/16 05:02:41;;;;;;;15.13;7.32;;;1.80;99.70;;;;;;5031217;28;20424;-67
2021/01/16 05:05:09;;;;;;;9.98;6.68;;;1.80;99.50;;;;;;5030522;28;20037;-68
2021/01/16 05:07:36;;;;;;;12.63;7.93;;;1.80;99.40;;;;;;5031263;28;20375;-68
2021/01/16 05:10:07;;;;;;;13.75;6.88;;;1.80;99.60;;;;;;5029919;28;20022;-67
2021/01/16 05:12:47;;;;;;;15.45;7.65;;;1.80;99.50;;;;;;5031017;28;20040;-68
2021/01/16 05:15:28;;;;;;;12.50;7.65;;;2.00;99.40;;;;;;5045218;28;20040;-67
2021/01/16 05:18:05;;;;;;;11.90;6.95;;;1.90;99.30;;;;;;5030647;28;20052;-67
2021/01/16 05:20:34;;;;;;;16.35;8.30;;;1.90;99.60;;;;;;5046579;28;20026;-68
2021/01/16 05:23:12;;;;;;;11.80;6.88;;;1.90;99.60;;;;;;5030000;28;20037;-68
2021/01/16 05:25:57;;;;;;;13.93;7.88;;;1.90;99.70;;;;;;5046467;28;20121;-68
2021/01/16 05:28:25;;;;;;;13.38;6.82;;;1.90;99.60;;;;;;5030640;28;20045;-68
2021/01/16 05:31:00;;;;;;;11.00;7.07;;;1.90;99.40;;;;;;5030496;28;20087;-68
2021/01/16 05:33:29;;;;;;;11.70;6.95;;;1.90;99.50;;;;;;5030805;28;20025;-69
2021/01/16 05:35:57;;;;;;;9.75;6.75;;;1.90;99.30;;;;;;5045419;28;20053;-68
2021/01/16 05:38:35;;;;;;;13.55;7.22;;;1.90;99.20;;;;;;5030527;28;20118;-68
2021/01/16 05:41:04;;;;;;;15.35;7.75;;;1.90;99.20;;;;;;5044870;28;20030;-67
2021/01/16 05:43:31;;;;;;;13.57;7.55;;;1.90;98.80;;;;;;5046093;28;20120;-68
2021/01/16 05:45:58;;;;;;;13.77;7.03;;;1.90;98.80;;;;;;5028719;28;20044;-67
2021/01/16 05:48:26;;;;;;;11.35;7.03;;;1.90;98.90;;;;;;5045242;28;20083;-68
2021/01/16 05:50:53;;;;;;;12.45;6.45;;;1.90;99.00;;;;;;5045954;28;20061;-68
2021/01/16 05:53:22;;;;;;;14.52;7.75;;;2.00;99.00;;;;;;5029211;28;20038;-68
2021/01/16 05:55:48;;;;;;;15.27;8.60;;;2.00;98.40;;;;;;5029336;28;20037;-68
2021/01/16 05:58:17;;;;;;;13.10;7.50;;;2.10;98.30;;;;;;5029636;28;20072;-69
2021/01/16 06:00:48;;;;;;;11.57;7.07;;;2.00;98.20;;;;;;5030222;28;20022;-67
2021/01/16 06:03:16;;;;;;;8.95;6.22;;;2.00;98.30;;;;;;5029842;28;20037;-67
2021/01/16 06:05:47;;;;;;;14.63;8.02;;;1.90;98.20;;;;;;5045195;28;20099;-68
2021/01/16 06:08:13;;;;;;;12.65;7.10;;;1.90;98.00;;;;;;5045008;28;20518;-68
2021/01/16 06:10:39;;;;;;;15.40;7.13;;;2.10;97.60;;;;;;5028354;28;20076;-68
2021/01/16 06:13:19;;;;;;;13.85;6.13;;;2.20;97.50;;;;;;5027816;28;20082;-67
2021/01/16 06:15:50;;;;;;;16.08;6.93;;;2.10;97.40;;;;;;5030355;28;20076;-68
2021/01/16 06:18:20;;;;;;;12.75;6.72;;;2.10;97.40;;;;;;5044727;28;20106;-68
2021/01/16 06:20:52;;;;;;;11.52;6.30;;;2.10;97.40;;;;;;5044983;28;20494;-68
2021/01/16 06:23:21;;;;;;;14.25;8.00;;;2.00;97.60;;;;;;5032116;28;20034;-68
2021/01/16 06:25:52;;;;;;;10.90;7.07;;;1.90;97.60;;;;;;5034061;28;20033;-68
2021/01/16 06:28:19;;;;;;;11.23;6.97;;;1.90;97.50;;;;;;5048819;28;20083;-68
2021/01/16 06:30:46;;;;;;;16.35;6.82;;;2.00;97.50;;;;;;5049070;28;20021;-68
2021/01/16 06:33:27;;;;;;;10.13;6.25;;;1.90;97.10;;;;;;5048805;28;20112;-69
2021/01/16 06:36:03;;;;;;;33.50;7.68;;;2.00;97.20;;;;;;5032617;28;20367;-68
2021/01/16 06:38:34;;;;;;;9.45;6.13;;;2.10;96.50;;;;;;5049517;28;20187;-68
2021/01/16 06:41:15;;;;;;;14.85;6.90;;;2.10;95.70;;;;;;5031642;28;20053;-67
2021/01/16 06:43:43;;;;;;;12.02;5.57;;;2.00;95.70;;;;;;5049236;28;20061;-68
2021/01/16 06:46:12;;;;;;;10.07;5.63;;;2.10;95.70;;;;;;5032796;28;20026;-68
2021/01/16 06:48:43;;;;;;;9.38;5.53;;;2.00;95.80;;;;;;5049363;28;20401;-68
2021/01/16 06:51:11;;;;;;;10.43;6.15;;;2.10;95.80;;;;;;5033049;28;20097;-68
2021/01/16 06:53:37;;;;;;;9.18;5.95;;;2.10;95.40;;;;;;5032158;28;20039;-69
2021/01/16 06:56:05;;;;;;;10.48;6.30;;;2.00;95.60;;;;;;5032807;28;20022;-68
2021/01/16 06:58:39;;;;;;;11.13;6.18;;;1.90;95.50;;;;;;5048992;28;20112;-68
2021/01/16 07:01:10;;;;;;;10.27;5.57;;;2.00;95.60;;;;;;5030895;28;20030;-68
2021/01/16 07:03:49;;;;;;;14.73;5.50;;;2.00;95.70;;;;;;5031466;28;20037;-69
2021/01/16 07:06:14;;;;;;;12.52;5.45;;;1.90;95.60;;;;;;5032370;28;20030;-70
2021/01/16 07:08:41;;;;;;;9.52;6.13;;;1.80;95.90;;;;;;5033298;28;20022;-69
2021/01/16 07:11:09;;;;;;;9.63;5.22;;;2.00;95.60;;;;;;5047170;28;20022;-68
2021/01/16 07:13:35;;;;;;;14.90;6.72;;;2.00;95.50;;;;;;5028189;28;20034;-68
2021/01/16 07:16:04;;;;;;;8.43;5.65;;;1.90;95.60;;;;;;5011479;28;20040;-68
2021/01/16 07:18:30;;;;;;;11.07;5.95;;;1.90;95.60;;;;;;5029699;28;20356;-68
2021/01/16 07:21:00;;;;;;;13.43;5.45;;;2.00;95.70;;;;;;5013236;28;20029;-69
2021/01/16 07:23:27;;;;;;;11.63;5.50;;;2.00;95.70;;;;;;5012771;28;20080;-68
2021/01/16 07:25:54;;;;;;;9.38;5.55;;;2.00;95.80;;;;;;5028351;28;20121;-68
2021/01/16 07:28:24;;;;;;;12.18;5.95;;;2.00;95.70;;;;;;5012514;28;20137;-67
2021/01/16 07:30:50;;;;;;;10.10;5.10;;;2.00;95.50;;;;;;5010005;28;20405;-67
2021/01/16 07:33:17;;;;;;;11.30;5.88;;;2.00;95.00;;;;;;5010235;28;20348;-67
2021/01/16 07:35:48;;;;;;;12.80;5.72;;;2.00;94.50;;;;;;5012813;28;20502;-67
2021/01/16 07:38:15;;;;;;;10.45;5.85;;;1.90;94.50;;;;;;5012290;28;20030;-68
2021/01/16 07:40:44;;;;;;;10.10;6.43;;;2.00;94.40;;;;;;5012118;28;20030;-68
2021/01/16 07:43:15;;;;;;;9.00;5.22;;;1.90;93.90;;;;;;5014394;28;20391;-68
2021/01/16 07:45:51;;;;;;;11.10;5.57;;;1.90;94.00;;;;;;5048057;28;20029;-68
2021/01/16 07:48:21;;;;;;;9.63;4.65;;;1.90;94.10;;;;;;5030784;28;20103;-67
2021/01/16 07:50:51;;;;;;;7.93;4.65;;;1.90;94.10;;;;;;5048558;28;20025;-68
2021/01/16 07:53:29;;;;;;;8.85;4.18;;;1.90;92.90;;;;;;5047548;28;20053;-70
2021/01/16 07:56:06;;;;;;;14.10;3.30;;;2.00;91.80;;;;;;5047821;28;20072;-68
2021/01/16 07:58:32;;;;;;;10.70;4.43;;;2.00;91.30;;;;;;5047661;28;20116;-68
2021/01/16 08:01:39;;;;;;;7.57;3.85;;;1.90;91.50;;;;;;5047607;28;20117;-69
2021/01/16 08:04:25;;;;;;;6.97;3.70;;;1.90;91.20;;;;;;5046293;28;20044;-66
2021/01/16 08:07:05;;;;;;;6.80;3.35;;;2.10;91.20;;;;;;5015504;28;20030;-69
2021/01/16 08:09:53;;;;;;;15.20;3.55;;;2.10;95.00;;;;;;5025399;28;20021;-65
2021/01/16 08:12:21;;;;;;;4.72;3.17;;;2.10;95.90;;;;;;5023426;28;20048;-69
2021/01/16 08:14:47;;;;;;;5.82;2.95;;;2.00;90.70;;;;;;5034391;28;20459;-67
2021/01/16 08:17:17;;;;;;;2.85;2.45;;;1.80;90.40;;;;;;5029431;28;20076;-69
2021/01/16 08:20:11;;;;;;;4.88;2.90;;;1.70;90.30;;;;;;5031786;28;20104;-69
2021/01/16 08:22:51;;;;;;;4.90;2.85;;;1.70;89.70;;;;;;5027477;28;20041;-69
2021/01/16 08:25:21;;;;;;;4.38;2.72;;;1.70;89.30;;;;;;5024026;28;20117;-69
2021/01/16 08:27:52;;;;;;;4.43;2.80;;;1.60;88.70;;;;;;5026156;28;20025;-70
2021/01/16 08:30:19;;;;;;;6.72;2.90;;;1.50;88.80;;;;;;5022108;28;20124;-69
2021/01/16 08:33:03;;;;;;;4.07;2.75;;;1.70;88.10;;;;;;5020403;28;20025;-70
2021/01/16 08:35:39;;;;;;;7.68;2.50;;;1.70;86.20;;;;;;5030898;28;20052;-67
2021/01/16 08:38:21;;;;;;;6.88;2.60;;;1.80;86.30;;;;;;5044617;28;20025;-68
2021/01/16 08:41:07;;;;;;;7.20;3.55;;;2.00;84.90;;;;;;5022783;28;20041;-61
2021/01/16 08:43:44;;;;;;;3.60;2.13;;;2.90;99.90;;;;;;5022573;28;20030;-61
2021/01/16 08:46:31;;;;;;;5.35;2.45;;;3.30;90.60;;;;;;5030477;28;20040;-69
2021/01/16 08:49:07;;;;;;;6.93;3.05;;;2.90;79.70;;;;;;5030348;28;20079;-69
2021/01/16 08:51:44;;;;;;;8.85;3.65;;;2.70;81.20;;;;;;5029332;28;20124;-70
2021/01/16 08:54:12;;;;;;;26.80;4.20;;;2.50;84.30;;;;;;5030074;28;20513;-70
2021/01/16 08:56:43;;;;;;;9.75;3.80;;;2.40;84.50;;;;;;5030090;28;20147;-68
2021/01/16 08:59:22;;;;;;;7.80;3.70;;;2.20;84.60;;;;;;5029556;28;20129;-70
2021/01/16 09:01:53;;;;;;;11.85;3.47;;;2.20;85.30;;;;;;5031237;28;20431;-70
2021/01/16 09:04:30;;;;;;;4.63;2.92;;;2.20;86.50;;;;;;5021115;28;20084;-69
2021/01/16 09:07:09;;;;;;;8.30;3.70;;;2.20;84.00;;;;;;5016871;28;20038;-69
2021/01/16 09:09:35;;;;;;;4.40;2.67;;;2.20;82.50;;;;;;5019248;28;20022;-69
2021/01/16 09:12:07;;;;;;;23.02;3.90;;;2.10;84.60;;;;;;5019756;28;20026;-61
2021/01/16 09:14:34;;;;;;;5.63;3.30;;;2.70;99.50;;;;;;5025278;28;20123;-61
2021/01/16 09:17:15;;;;;;;5.25;2.70;;;3.20;92.50;;;;;;5031417;28;20026;-61
2021/01/16 09:19:41;;;;;;;7.18;2.92;;;3.60;84.90;;;;;;5037370;28;20025;-60
2021/01/16 09:22:31;;;;;;;5.82;2.83;;;3.70;78.50;;;;;;5026456;28;20046;-65
2021/01/16 09:25:31;;;;;;;5.20;3.60;;;3.50;78.40;;;;;;5029565;28;20029;-62
2021/01/16 09:27:57;;;;;;;4.47;2.75;;;3.50;76.50;;;;;;5007739;28;20045;-70
2021/01/16 09:30:30;;;;;;;5.47;3.75;;;3.30;77.40;;;;;;5029629;28;20034;-69
2021/01/16 09:32:56;;;;;;;7.57;3.70;;;3.00;78.70;;;;;;5030315;28;20052;-69
2021/01/16 09:35:38;;;;;;;9.85;4.22;;;2.70;79.40;;;;;;5027978;28;20057;-69
2021/01/16 09:38:19;;;;;;;12.48;3.42;;;2.70;80.40;;;;;;5029357;28;20146;-69
2021/01/16 09:40:45;;;;;;;6.20;3.65;;;2.60;81.00;;;;;;5029540;28;20029;-70
2021/01/16 09:43:38;;;;;;;9.00;3.13;;;2.60;81.70;;;;;;5029735;28;20045;-69
2021/01/16 09:46:03;;;;;;;;;;;2.50;79.60;;;;;;5029029;28;20112;-71
2021/01/16 09:48:40;;;;;;;8.30;3.60;;;2.50;80.40;;;;;;5044768;28;20381;-70
2021/01/16 09:51:08;;;;;;;5.70;3.28;;;2.20;80.50;;;;;;5029197;28;20087;-70
2021/01/16 09:53:34;;;;;;;10.18;3.92;;;2.30;82.20;;;;;;5029899;28;20060;-70
2021/01/16 09:56:00;;;;;;;7.47;3.85;;;2.50;82.40;;;;;;5030930;28;20104;-70
2021/01/16 09:58:36;;;;;;;4.35;3.45;;;2.40;80.40;;;;;;5033868;28;20032;-69
2021/01/16 10:01:23;;;;;;;6.18;4.13;;;2.50;77.90;;;;;;5032804;28;20391;-70
2021/01/16 10:03:53;;;;;;;7.18;4.07;;;2.50;91.80;;;;;;5033260;28;20467;-69
2021/01/16 10:06:20;;;;;;;5.22;3.38;;;2.40;80.00;;;;;;5032176;28;20034;-69
2021/01/16 10:08:47;;;;;;;4.60;3.33;;;2.30;80.90;;;;;;5032249;28;20079;-70
2021/01/16 10:11:14;;;;;;;4.97;3.75;;;2.30;79.50;;;;;;5033808;28;20018;-69
2021/01/16 10:13:41;;;;;;;7.70;4.72;;;2.40;77.70;;;;;;5034463;28;20347;-70
2021/01/16 10:16:11;;;;;;;5.65;3.55;;;2.10;81.60;;;;;;5033281;28;20048;-70
2021/01/16 10:18:38;;;;;;;8.07;4.95;;;2.10;79.80;;;;;;5032370;28;20092;-69
2021/01/16 10:21:20;;;;;;;10.23;6.22;;;2.20;84.50;;;;;;5032342;28;20064;-70
2021/01/16 10:23:46;;;;;;;7.65;3.60;;;2.40;88.50;;;;;;5032864;28;20025;-70
2021/01/16 10:26:16;;;;;;;8.77;3.70;;;2.60;82.20;;;;;;5033781;28;20029;-70
2021/01/16 10:28:48;;;;;;;9.27;3.90;;;2.70;81.20;;;;;;5033127;28;20444;-71
2021/01/16 10:31:14;;;;;;;15.32;4.43;;;2.60;81.60;;;;;;5028412;28;20109;-70
2021/01/16 10:33:45;;;;;;;5.00;3.00;;;2.80;80.50;;;;;;5012571;28;20451;-69
2021/01/16 10:36:13;;;;;;;7.40;3.67;;;2.40;79.80;;;;;;5022980;28;20426;-70
2021/01/16 10:38:57;;;;;;;5.63;3.83;;;2.40;90.30;;;;;;5032203;28;20546;-63
2021/01/16 10:41:33;;;;;;;9.63;4.35;;;4.80;99.90;;;;;;5032753;28;20451;-67
2021/01/16 10:44:06;;;;;;;4.82;3.33;;;3.70;81.70;;;;;;5032824;28;20021;-68
2021/01/16 10:46:46;;;;;;;5.95;3.65;;;3.30;79.70;;;;;;5031214;28;20079;-67
2021/01/16 10:49:25;;;;;;;7.18;4.00;;;2.80;81.50;;;;;;5032079;28;20026;-68
2021/01/16 10:52:01;;;;;;;9.90;3.90;;;2.60;85.30;;;;;;5032514;28;20117;-67
2021/01/16 10:54:28;;;;;;;5.55;3.58;;;2.40;86.10;;;;;;5032836;28;20200;-67
2021/01/16 10:56:57;;;;;;;7.18;3.50;;;2.30;86.80;;;;;;5032528;28;20033;-66
2021/01/16 10:59:26;;;;;;;4.88;3.13;;;2.00;87.70;;;;;;5031771;28;20135;-68
2021/01/16 11:01:52;;;;;;;11.77;4.90;;;2.00;87.80;;;;;;5031614;28;20039;-68
2021/01/16 11:04:25;;;;;;;20.38;4.93;;;2.00;89.10;;;;;;5047569;28;20029;-69
2021/01/16 11:06:58;;;;;;;5.68;3.47;;;2.30;87.30;;;;;;5033650;28;20029;-67
2021/01/16 11:09:33;;;;;;;6.82;4.38;;;2.50;84.80;;;;;;5031676;28;20113;-68
2021/01/16 11:12:00;;;;;;;7.95;4.05;;;2.20;85.30;;;;;;5031182;28;20083;-67
2021/01/16 11:14:45;;;;;;;7.70;3.90;;;2.10;85.30;;;;;;5030649;28;20030;-67
2021/01/16 11:17:11;;;;;;;6.68;4.70;;;1.70;87.30;;;;;;5030675;28;20390;-70
2021/01/16 11:19:39;;;;;;;12.38;5.45;;;1.80;88.70;;;;;;5031201;28;20049;-69
2021/01/16 11:22:06;;;;;;;41.00;5.75;;;2.30;89.20;;;;;;5031081;28;20029;-70
2021/01/16 11:24:52;;;;;;;7.68;4.82;;;2.30;88.10;;;;;;5030656;28;20530;-70
2021/01/16 11:27:18;;;;;;;7.60;4.72;;;2.60;89.90;;;;;;5030582;28;20147;-67
2021/01/16 11:29:45;;;;;;;7.60;5.00;;;2.50;85.40;;;;;;5030728;28;20026;-68
2021/01/16 11:32:15;;;;;;;10.85;5.13;;;2.60;85.20;;;;;;5032734;28;20489;-69
2021/01/16 11:35:03;;;;;;;8.57;5.38;;;2.30;85.70;;;;;;5030858;28;20463;-66
2021/01/16 11:37:51;;;;;;;21.92;5.03;;;2.00;88.80;;;;;;5029951;28;20037;-68
2021/01/16 11:40:31;;;;;;;13.25;5.93;;;2.10;87.50;;;;;;5030175;28;20033;-65
2021/01/16 11:43:00;;;;;;;10.40;5.93;;;3.20;99.90;;;;;;5011322;28;20057;-68
2021/01/16 11:45:26;;;;;;;21.63;6.03;;;3.50;91.50;;;;;;5012308;28;20033;-67
2021/01/16 11:47:54;;;;;;;14.27;5.18;;;2.90;83.70;;;;;;5030931;28;20044;-67
2021/01/16 11:50:21;;;;;;;6.85;4.57;;;2.50;84.70;;;;;;5029602;28;20032;-67
2021/01/16 11:53:05;;;;;;;8.25;5.03;;;2.30;84.60;;;;;;5030835;28;20116;-67
2021/01/16 11:55:30;;;;;;;10.18;4.85;;;2.20;90.30;;;;;;5029857;28;20029;-69
2021/01/16 11:58:00;;;;;;;6.20;4.70;;;2.00;89.20;;;;;;5030807;28;20082;-67
2021/01/16 12:00:26;;;;;;;6.30;4.90;;;2.20;87.40;;;;;;5029789;28;20025;-68
2021/01/16 12:02:52;;;;;;;9.68;5.40;;;1.90;87.20;;;;;;5030933;28;20095;-67
2021/01/16 12:05:21;;;;;;;10.45;5.70;;;2.00;89.70;;;;;;5031035;28;20033;-67
2021/01/16 12:07:49;;;;;;;13.80;5.45;;;2.20;88.60;;;;;;5031601;28;20112;-67
2021/01/16 12:10:25;;;;;;;8.95;5.10;;;2.30;87.90;;;;;;5031554;28;20041;-68
2021/01/16 12:12:52;;;;;;;7.60;5.40;;;2.30;87.80;;;;;;5032073;28;20159;-67
2021/01/16 12:15:25;;;;;;;19.67;6.57;;;2.40;87.40;;;;;;5029223;28;20101;-66
2021/01/16 12:17:52;;;;;;;13.30;6.95;;;2.40;90.00;;;;;;5023364;28;20033;-68
2021/01/16 12:20:22;;;;;;;11.95;6.40;;;2.50;87.90;;;;;;5030011;28;20045;-66
2021/01/16 12:22:51;;;;;;;10.20;5.38;;;2.40;87.80;;;;;;5024381;28;20048;-67
2021/01/16 12:25:18;;;;;;;7.03;5.03;;;2.30;86.90;;;;;;5029705;28;20026;-66
2021/01/16 12:27:51;;;;;;;7.90;5.13;;;2.00;87.20;;;;;;5031383;28;20034;-68
2021/01/16 12:30:19;;;;;;;12.30;6.57;;;2.10;90.10;;;;;;5012841;28;20036;-68
2021/01/16 12:32:44;;;;;;;10.52;5.65;;;2.10;89.30;;;;;;5028298;28;20037;-66
2021/01/16 12:35:11;;;;;;;12.65;6.00;;;2.20;88.60;;;;;;5031165;28;20041;-67
2021/01/16 12:37:39;;;;;;;11.35;6.22;;;2.10;89.00;;;;;;5029543;28;20037;-67
2021/01/16 12:40:12;;;;;;;12.32;6.70;;;2.10;89.60;;;;;;5030221;28;20029;-67
2021/01/16 12:42:38;;;;;;;8.90;5.00;;;2.20;88.60;;;;;;5029643;28;20095;-68
2021/01/16 12:45:12;;;;;;;12.80;6.82;;;2.20;88.70;;;;;;5031125;28;20025;-67
2021/01/16 12:47:40;;;;;;;10.13;5.80;;;2.20;89.40;;;;;;5024290;28;20127;-68
2021/01/16 12:50:07;;;;;;;31.55;6.80;;;2.10;90.00;;;;;;5030319;28;20017;-68
2021/01/16 12:52:33;;;;;;;11.20;6.38;;;2.20;90.90;;;;;;5029233;28;20084;-66
2021/01/16 12:55:08;;;;;;;14.63;6.95;;;2.10;90.50;;;;;;5030991;28;20109;-67
2021/01/16 12:57:36;;;;;;;12.13;6.63;;;2.00;91.10;;;;;;5028819;28;20112;-66
2021/01/16 13:00:05;;;;;;;11.35;6.00;;;1.90;91.30;;;;;;5030991;28;20026;-66
2021/01/16 13:02:31;;;;;;;18.73;7.47;;;1.80;91.50;;;;;;5029630;28;20029;-66
2021/01/16 13:05:00;;;;;;;12.60;7.00;;;1.60;91.80;;;;;;5030792;28;20435;-67
2021/01/16 13:07:29;;;;;;;10.18;5.13;;;1.60;92.30;;;;;;5030323;28;20033;-66